Página principal
METAR-TAF:

METAR-TAF

Aeroportos :

Aeroporto Internacional de Wellington

Wellington, Nova Zelândia

latitude: 41-20S, longitude: 174-48E, altura: 12 m

Observação actual do tempo

O boletim foi feito há 27 minutos, às 00:30 UTC
Vento 11 kt de sul
Temperatura 17°C
Humidade 72%
Pressão 1023 hPa
Visibilidade 10 km ou mais

METAR: NZWN 130030Z AUTO 18011KT 9999 NCD 17/12 Q1023 NOSIG

Hora: 13:57 (00:57 UTC)

Previsão

O boletim foi feito há 1 hora e 32 minutos, às 23:25 UTC
Previsão válida de 13 às 00 UTC a 14 às 00 UTC
Vento 10 kt de su-sudeste
Visibilidade 10 km ou mais
Poucas nuvensa uma altura de 2500 ft
Tornando-se
de 13 às 07 UTC a 13 às 09 UTC
Nuvens fragmentadasa uma altura de 800 ft
Tornando-se
de 13 às 18 UTC a 13 às 20 UTC
Poucas nuvensa uma altura de 2500 ft

TAF: NZWN 122325Z 1300/1400 16010KT 9999 FEW025 BECMG 1307/1309 BKN008 BECMG 1318/1320 FEW025

Observações e previsões do tempo de mais de 4000 aeroportos (mensagens METAR e TAF).

As estações disponíveis são os pontos amarelos e vermelhos sobre o mapa.

Mova o rato sobre o mapa para ver o nome da estação.

Depois clique no ponto para visualizar as observações e previsões meteorológicas.

Para alterar o mapa : clique nos botões verdes com uma cruz preta para aumentar o zoom; no botão verde com uma pitada de zoom; ou nas setas verdes para mapas adjacentes.


METAR-TAF: